Tiempo atmosférico en la estación meteorológica de Fonfría, Teruel (1262 m.)



Fecha
DESCASC
Temp. máxima en grados centígrados (hora)
DESCASC
Temp. mínima en grados centígrados (hora)
DESCASC
Temp. media en grados centígrados
DESCASC
Racha de viento máxima en m/sg (hora)
DESCASC
Velocidad máxima media en intervalos de 10 minutos(hora)
DESCASC
Precipitaciones diarias en mm
DESCASC
Precipitaciones de 00:00 a 06:00 en mm
DESCASC
Precipitaciones de 06:00 a 12:00 en mm
DESCASC
Precipitaciones de 12:00 a 18:00 en mm
DESCASC
Precipitaciones de 18:00 a 24:00 en mm
DESCASC
22-04-2019 11.1 (16:50) 3.7 (07:30) 7.4 6.67 (01:30) 5.28 (23:20) 0.2 0 0 0.2 0
21-04-2019 5.5 (15:20) 2.5 (00:10) 4 11.39 (01:00) 6.67 (00:50) 5.4 4.4 0 0.2 0.8
20-04-2019 10.2 (14:10) 2.7 (23:59) 6.4 14.44 (14:00) 9.17 (11:50) 6 0 0 0 6
19-04-2019 10.5 (16:20) 5.1 (00:00) 7.8 18.61 (13:00) 12.22 (16:20) 24.2 21.4 2.8 0 0
18-04-2019 11 (00:00) 5.1 (00:00) 8 13.33 (17:40) 8.61 (17:50) 14.4 0 0.2 0 14.2
17-04-2019 19.1 (13:00) 5.6 (00:00) 12.4 11.11 (05:00) 9.17 (04:50) 0 0 0 0 0
16-04-2019 16.6 (16:30) 5 (00:00) 10.8 10.28 (00:20) 6.67 (00:20) 0.2 0 0.2 0 0
15-04-2019 19.6 (16:40) 9 (00:00) 14.3 12.5 (12:50) 7.78 (12:20) 4 0 0 0.4 3.6
14-04-2019 18.1 (16:00) 6.4 (00:00) 12.3 12.78 (10:10) 8.33 (15:10) 0 0 0 0 0
13-04-2019 15.5 (18:00) 0 (00:00) 7.8 7.78 (16:20) 5 (16:00) 0 0 0 0 0
12-04-2019 11.5 (16:20) 1.5 (00:00) 6.5 11.11 (08:30) 7.5 (12:30) 0 0 0 0 0
11-04-2019 8.4 (15:00) 2 (00:00) 5.2 13.61 (23:30) 9.72 (17:30) 0 0 0 0 0
10-04-2019 7.9 (16:40) 1.8 (00:00) 4.9 13.61 (05:30) 8.89 (03:30) 1.2 0.6 0 0.6 0
09-04-2019 9.8 (15:50) 0.9 (00:00) 5.4 14.17 (18:40) 8.89 (21:40) 9 1.4 0.2 0.2 7.2
08-04-2019 11.7 (15:20) 2.8 (00:00) 7.2 11.39 (11:50) 7.22 (03:10) 4.4 1.6 1 1.4 0.4
07-04-2019 8.1 (16:20) 0.2 (00:00) 4.2 14.72 (09:40) 10.83 (10:50) 0.8 0.6 0.2 0 0
06-04-2019 7.3 (16:30) -0.2 (00:00) 3.6 13.33 (12:50) 7.78 (08:50) 5.4 0.4 0.6 0.2 4.2
05-04-2019 10.1 (12:20) 0.2 (00:00) 5.2 11.11 (11:20) 7.22 (12:10) 6.8 0 0 0.8 6
04-04-2019 9.3 (17:30) -3.3 (-00:0) 3 9.72 (09:20) 6.67 (10:30) 0 0 0 0 0
03-04-2019 8 (11:20) -1.3 (22:30) 3.4 11.11 (20:10) 6.94 (20:10) 1.4 0 0 1.4 0
02-04-2019 13.7 (15:50) 5.2 (00:00) 9.4 9.44 (17:20) 6.11 (17:20) 1.2 0 0 0.2 1
01-04-2019 10.3 (13:20) 3.9 (00:00) 7.1 7.22 (20:10) 5 (20:20) 13.4 4.4 1 1.8 6.2
31-03-2019 7.3 (12:10) 3.1 (00:00) 5.2 6.39 (21:30) 4.17 (21:30) 12.4 0 0 5.6 6.8
30-03-2019 12.9 (14:20) 0.7 (00:00) 6.8 10.56 (01:00) 8.89 (01:00) 0 0 0 0 0
29-03-2019 14.6 (13:40) 1.1 (00:00) 7.9 10.28 (09:50) 7.78 (23:59) 0 0 0 0 0
28-03-2019 13.5 (14:10) 0.3 (00:00) 6.9 8.06 (15:00) 6.94 (23:30) 0 0 0 0 0
27-03-2019 12.4 (14:00) -1.1 (-00:0) 5.6 6.94 (22:50) 4.72 (22:50) 0 0 0 0 0
26-03-2019 12.1 (13:50) -0.3 (00:00) 5.9 8.61 (00:50) 5.56 (00:40) 0 0 0 0 0
25-03-2019 12 (14:30) 1.1 (00:00) 6.6 10 (18:30) 7.22 (10:20) 0 0 0 0 0

Gráficas

Temp. máximas Temp. mínimas Temp. medias Precipitaciones Rachas de viento máximas Velocidades máximas media en intervalos de 10 minutos

Datos horarios

Fecha y hora oficial Temperatura (ºC) Velocidad del viento (km/h) Dirección del viento Racha (km/h) Dirección de racha Precipitación (mm) Presión (hPa) Tendencia (hPa) Humedad (%)
2019-04-23 23:00:00 2.6 13 Oeste 28 Oeste 0 -- -- 83
2019-04-23 22:00:00 3.2 10 Sudoeste 29 Oeste 0 -- -- 82
2019-04-23 21:00:00 5.6 7 Oeste 25 Sudoeste 0 -- -- 73
2019-04-23 20:00:00 6.3 9 Sudoeste 36 Sudoeste 0 -- -- 83
2019-04-23 19:00:00 7.8 25 Sudoeste 45 Sudoeste 0 -- -- 76
2019-04-23 18:00:00 7.7 15 Sur 45 Sudoeste 0 -- -- 83
2019-04-23 17:00:00 9.3 21 Sur 32 Sudoeste 0.2 -- -- 76
2019-04-23 16:00:00 7.2 16 Sudoeste 30 Sudoeste 1.6 -- -- 88
2019-04-23 15:00:00 7 18 Oeste 40 Oeste 0.8 -- -- 90
2019-04-23 14:00:00 10.9 17 Sur 35 Sudoeste 0 -- -- 70
2019-04-23 13:00:00 10.5 18 Sur 36 Sur 0 -- -- 75
2019-04-23 12:00:00 9.9 17 Sudoeste 33 Sur 0 -- -- 77
2019-04-23 11:00:00 10.2 13 Sur 26 Sudoeste 0 -- -- 73
2019-04-23 10:00:00 7.9 17 Sudoeste 31 Sudoeste 0 -- -- 84
2019-04-23 09:00:00 8.1 20 Sudoeste 31 Sudoeste 0 -- -- 82
2019-04-23 08:00:00 6.7 17 Sudoeste 27 Sudoeste 0 -- -- 86
2019-04-23 07:00:00 5.1 12 Sudoeste 21 Sudoeste 0 -- -- 92
2019-04-23 06:00:00 5.4 13 Sudoeste 21 Sudoeste 0 -- -- 91
2019-04-23 05:00:00 6.2 17 Sudoeste 23 Sudoeste 0 -- -- 90
2019-04-23 04:00:00 5.9 16 Sudoeste 31 Sudoeste 0 -- -- 89
2019-04-23 03:00:00 6.2 15 Sudoeste 22 Sudoeste 0 -- -- 92
2019-04-23 02:00:00 7 16 Sudoeste 26 Sudoeste 0 -- -- 91
2019-04-23 01:00:00 7.1 17 Sudoeste 24 Sudoeste 0 -- -- 92
2019-04-23 00:00:00 7.6 14 Sudoeste 24 Sudoeste 0 -- -- 92
2019-04-22 23:00:00 8 18 Sudoeste 24 Sudoeste 0 -- -- 89
2019-04-22 22:00:00 7.8 10 Sudoeste 15 Sudoeste 0 -- -- 88
2019-04-22 21:00:00 8 12 Sudoeste 14 Sudoeste 0 -- -- 91
2019-04-22 20:00:00 8.7 5 Sudeste 18 Este 0 -- -- 85
2019-04-22 19:00:00 9.1 12 Este 16 Este 0 -- -- 82
2019-04-22 18:00:00 9.4 6 Este 12 Este 0 -- -- 79
2019-04-22 17:00:00 10.7 5 Nordeste 10 Sudeste 0 -- -- 74
2019-04-22 16:00:00 10.2 8 Este 15 Este 0 -- -- 74
2019-04-22 15:00:00 8 7 Este 18 Este 0 -- -- 87
2019-04-22 14:00:00 7.2 6 Este 14 Norte 0.2 -- -- 92
2019-04-22 13:00:00 6.3 10 Nordeste 21 Norte 0 -- -- 90
2019-04-22 12:00:00 6.1 12 Norte 19 Norte 0 -- -- 90
2019-04-22 11:00:00 5.6 10 Norte 19 Nordeste 0 -- -- 91
2019-04-22 10:00:00 6 8 Nordeste 13 Nordeste 0 -- -- 85
2019-04-22 09:00:00 5.2 3 Noroeste 7 Noroeste 0 -- -- 97
2019-04-22 08:00:00 4 6 Noroeste 11 Oeste 0 -- -- 98
2019-04-22 07:00:00 3.9 7 Oeste 11 Oeste 0 -- -- 97
2019-04-22 06:00:00 4.5 8 Noroeste 16 Norte 0 -- -- 95
2019-04-22 05:00:00 4.9 11 Norte 19 Norte 0 -- -- 94
2019-04-22 04:00:00 5 9 Norte 22 Nordeste 0 -- -- 95
2019-04-22 03:00:00 5.1 12 Norte 20 Norte 0 -- -- 94
2019-04-22 02:00:00 5.2 14 Norte 24 Nordeste 0 -- -- 93
2019-04-22 01:00:00 5.2 14 Norte 21 Norte 0 -- -- 95
2019-04-22 00:00:00 5.2 15 Nordeste 25 Norte 0 -- -- 94
2019-04-21 23:00:00 4.9 14 Norte 25 Norte 0 -- -- 98
2019-04-21 22:00:00 4.9 11 Nordeste 21 Nordeste 0 -- -- 98
2019-04-21 21:00:00 4.9 15 Nordeste 26 Nordeste 0 -- -- 98
2019-04-21 20:00:00 4.9 17 Nordeste 30 Nordeste 0.6 -- -- 98
2019-04-21 19:00:00 5 15 Nordeste 34 Nordeste 0.2 -- -- 99
2019-04-21 18:00:00 4.9 17 Nordeste 28 Nordeste 0 -- -- 99
2019-04-21 17:00:00 4.8 14 Nordeste 30 Nordeste 0 -- -- 98
2019-04-21 16:00:00 5.1 19 Nordeste 31 Nordeste 0.2 -- -- 95
2019-04-21 15:00:00 5.2 19 Nordeste 29 Nordeste 0 -- -- 99
2019-04-21 14:00:00 4.6 17 Nordeste 31 Nordeste 0 -- -- 100
2019-04-21 13:00:00 4.2 19 Nordeste 32 Nordeste 0 -- -- 100
2019-04-21 12:00:00 4.1 21 Nordeste 32 Nordeste 0 -- -- 100
2019-04-21 11:00:00 3.8 19 Nordeste 30 Nordeste 0 -- -- 100
2019-04-21 10:00:00 3.6 17 Nordeste 31 Nordeste 0 -- -- 100
2019-04-21 09:00:00 3.5 21 Nordeste 36 Este 0 -- -- 100
2019-04-21 08:00:00 3.5 20 Nordeste 33 Nordeste 0 -- -- 100
2019-04-21 07:00:00 3.5 14 Nordeste 27 Nordeste 0 -- -- 100
2019-04-21 06:00:00 3.4 18 Nordeste 35 Nordeste 0.2 -- -- 99
2019-04-21 05:00:00 3.5 15 Nordeste 36 Nordeste 1 -- -- 99
2019-04-21 04:00:00 3.4 17 Nordeste 33 Nordeste 0.4 -- -- 99
2019-04-21 03:00:00 3.5 15 Nordeste 30 Nordeste 0.4 -- -- 99
2019-04-21 02:00:00 3.6 16 Nordeste 36 Este 0.4 -- -- 98
2019-04-21 01:00:00 2.9 23 Este 41 Este 2 -- -- 97
2019-04-21 00:00:00 2.7 22 Este 41 Este 2.4 -- -- 96
2019-04-20 23:00:00 3.6 23 Este 37 Este 2.4 -- -- 95
2019-04-20 22:00:00 3.9 23 Este 49 Este 0.4 -- -- 95
2019-04-20 21:00:00 4.4 24 Este 44 Sudeste 0 -- -- 95
2019-04-20 20:00:00 4.6 28 Sudeste 45 Sudeste 0.8 -- -- 92
2019-04-20 19:00:00 5.4 23 Sudeste 40 Sudeste 0 -- -- 89
2019-04-20 18:00:00 8.3 25 Este 43 Este 0 -- -- 66
2019-04-20 17:00:00 9.5 25 Este 46 Este 0 -- -- 58
2019-04-20 16:00:00 9.7 27 Este 44 Este 0 -- -- 59
2019-04-20 15:00:00 10.1 22 Este 48 Este 0 -- -- 60
2019-04-20 14:00:00 9.8 33 Este 52 Este 0 -- -- 61
2019-04-20 13:00:00 9.5 30 Este 52 Este 0 -- -- 66
2019-04-20 12:00:00 9.8 33 Este 51 Este 0 -- -- 61
2019-04-20 11:00:00 9.8 32 Este 49 Este 0 -- -- 64
2019-04-20 10:00:00 8.6 24 Este 41 Este 0 -- -- 70
2019-04-20 09:00:00 7.7 20 Este 35 Nordeste 0 -- -- 75
2019-04-20 08:00:00 5.7 18 Este 31 Este 0 -- -- 83
2019-04-20 07:00:00 6 23 Este 38 Nordeste 0 -- -- 79
2019-04-20 06:00:00 6 21 Nordeste 37 Nordeste 0 -- -- 82
2019-04-20 05:00:00 5.8 16 Este 35 Este 0 -- -- 86
2019-04-20 04:00:00 6 13 Este 28 Este 0 -- -- 86
2019-04-20 03:00:00 5.8 12 Este 26 Este 0 -- -- 89
2019-04-20 02:00:00 6.2 18 Este 29 Este 0 -- -- 87
2019-04-20 01:00:00 6.6 19 Este 37 Este 0 -- -- 84
2019-04-20 00:00:00 6.3 17 Este 33 Nordeste 0 -- -- 83
2019-04-19 23:00:00 6.7 14 Nordeste 39 Este 0 -- -- 81
2019-04-19 22:00:00 7 19 Este 40 Este 0 -- -- 79
2019-04-19 21:00:00 7.5 26 Este 50 Este 0 -- -- 78
2019-04-19 20:00:00 8.3 33 Este 54 Este 0 -- -- 74
2019-04-19 19:00:00 9.2 33 Este 53 Este 0 -- -- 71
2019-04-19 18:00:00 9.8 35 Este 62 Sudeste 0 -- -- 69
2019-04-19 17:00:00 10.2 42 Este 64 Este 0 -- -- 69
2019-04-19 16:00:00 10.4 39 Este 64 Este 0 -- -- 72
2019-04-19 15:00:00 9.5 41 Este 64 Este 0 -- -- 84
2019-04-19 14:00:00 7.9 42 Este 64 Este 0 -- -- 95
2019-04-19 13:00:00 6.3 39 Este 67 Este 0 -- -- 99
2019-04-19 12:00:00 6.6 37 Este 54 Este 0 -- -- 99
2019-04-19 11:00:00 6.8 31 Este 49 Este 0.2 -- -- 99
2019-04-19 10:00:00 6.8 24 Este 44 Este 0.2 -- -- 99
2019-04-19 09:00:00 6.6 21 Este 35 Este 0.4 -- -- 99
2019-04-19 08:00:00 5.6 8 Este 14 Este 1 -- -- 98
2019-04-19 07:00:00 5.5 3 Este 10 Este 1 -- -- 98
2019-04-19 06:00:00 5.5 5 Este 15 Sudeste 2 -- -- 98
2019-04-19 05:00:00 5.5 7 Sudeste 18 Este 4 -- -- 98
2019-04-19 04:00:00 5.4 7 Sudeste 15 Sudeste 1.6 -- -- 98
2019-04-19 03:00:00 5.2 9 Este 15 Este 2.6 -- -- 98
2019-04-19 02:00:00 5.2 5 Este 18 Sur 5.4 -- -- 96
2019-04-19 01:00:00 5.2 4 Sudeste 13 Sudeste 5.8 -- -- 97
2019-04-19 00:00:00 5.1 4 Este 26 Sudoeste 6 -- -- 96
2019-04-18 23:00:00 5.4 18 Sur 31 Sudoeste 3.6 -- -- 95
2019-04-18 22:00:00 5.5 19 Sudoeste 40 Sudoeste 4.2 -- -- 95
2019-04-18 21:00:00 7.3 28 Este 47 Este 0.4 -- -- 94
2019-04-18 20:00:00 7.5 27 Este 44 Este 0 -- -- 90
2019-04-18 19:00:00 8.5 24 Sudeste 44 Este 0 -- -- 79
2019-04-18 18:00:00 9.5 28 Este 48 Sudeste 0 -- -- 71
2019-04-18 17:00:00 10.7 24 Sudeste 40 Sudeste 0 -- -- 65
2019-04-18 16:00:00 9.9 16 Este 39 Sudeste 0 -- -- 76
2019-04-18 15:00:00 9.3 22 Este 33 Este 0 -- -- 80
2019-04-18 14:00:00 9.1 19 Nordeste 36 Este 0 -- -- 82
2019-04-18 13:00:00 9.3 19 Este 35 Este 0 -- -- 81
2019-04-18 12:00:00 8.3 19 Este 31 Este 0 -- -- 86
2019-04-18 11:00:00 7.9 12 Este 27 Este 0 -- -- 87
2019-04-18 10:00:00 7.1 6 Sudeste 17 Sudeste 0.2 -- -- 84
2019-04-18 09:00:00 6.7 14 Sudeste 24 Sudeste 0 -- -- 81
2019-04-18 08:00:00 7.4 7 Sudeste 13 Este 0 -- -- 67
2019-04-18 07:00:00 8 8 Sur 14 Sur 0 -- -- 55
2019-04-18 06:00:00 8.9 15 Sur 28 Sudoeste 0 -- -- 49
2019-04-18 05:00:00 9.4 22 Sur 31 Sur 0 -- -- 49
2019-04-18 04:00:00 8.6 26 Sur 32 Sur 0 -- -- 67
2019-04-18 03:00:00 9.8 18 Sur 30 Sur 0 -- -- 59
2019-04-18 02:00:00 9.3 24 Sudoeste 33 Sudoeste 0 -- -- 75
2019-04-18 01:00:00 10 22 Sudoeste 28 Sudoeste 0 -- -- 69
2019-04-18 00:00:00 11 14 Sudoeste 27 Sudoeste 0 -- -- 63
2019-04-17 23:00:00 12.5 19 Sur 32 Sur 0 -- -- 61
2019-04-17 22:00:00 12.5 22 Sur 34 Sudeste 0 -- -- 63
2019-04-17 21:00:00 12.8 19 Sur 25 Sur 0 -- -- 66
2019-04-17 20:00:00 13.7 8 Sudeste 18 Este 0 -- -- 70
2019-04-17 19:00:00 15.6 12 Este 29 Este 0 -- -- 64
2019-04-17 18:00:00 17.2 17 Este 33 Sudeste 0 -- -- 57
2019-04-17 17:00:00 17.9 19 Este 33 Sudeste 0 -- -- 52
2019-04-17 16:00:00 17.5 16 Este 33 Sudeste 0 -- -- 55
2019-04-17 15:00:00 17.3 22 Este 31 Nordeste 0 -- -- 56
2019-04-17 14:00:00 17.3 16 Este 30 Sur 0 -- -- 54
2019-04-17 13:00:00 19.1 20 Sur 39 Sur 0 -- -- 38
2019-04-17 12:00:00 16.8 22 Sudeste 36 Sudeste 0 -- -- 46
2019-04-17 11:00:00 14.4 17 Sur 34 Sur 0 -- -- 53
2019-04-17 10:00:00 12.1 20 Sudoeste 35 Sudoeste 0 -- -- 65
2019-04-17 09:00:00 9.7 24 Sudoeste 33 Sudoeste 0 -- -- 71
2019-04-17 08:00:00 7.4 28 Sudoeste 33 Sudoeste 0 -- -- 80
2019-04-17 07:00:00 5.9 24 Sudoeste 37 Sur 0 -- -- 86
2019-04-17 06:00:00 6 32 Sudoeste 39 Sur 0 -- -- 87
2019-04-17 05:00:00 6.4 33 Sudoeste 40 Sur 0 -- -- 87
2019-04-17 04:00:00 6.8 29 Sudoeste 39 Sudoeste 0 -- -- 88
2019-04-17 03:00:00 7.2 32 Sudoeste 39 Sudoeste 0 -- -- 87
2019-04-17 02:00:00 7.3 17 Sur 33 Sur 0 -- -- 86
2019-04-17 01:00:00 8 25 Sudoeste 32 Sudoeste 0 -- -- 85
2019-04-17 00:00:00 8.4 8 Sur 19 Sur 0 -- -- 86
2019-04-16 23:00:00 8.4 9 Sudeste 14 Sudeste 0 -- -- 85
2019-04-16 22:00:00 9 8 Sudeste 13 Sudeste 0 -- -- 82
2019-04-16 21:00:00 10.4 8 Sudeste 23 Este 0 -- -- 71
2019-04-16 20:00:00 12.4 15 Este 25 Este 0 -- -- 62
2019-04-16 19:00:00 14 16 Este 26 Este 0 -- -- 57
2019-04-16 18:00:00 15.3 12 Nordeste 26 Nordeste 0 -- -- 50
2019-04-16 17:00:00 15.9 8 Nordeste 15 Sudoeste 0 -- -- 40
2019-04-16 16:00:00 15.8 10 Sudeste 19 Sudeste 0 -- -- 45
2019-04-16 15:00:00 14 9 Sudeste 23 Este 0 -- -- 54
2019-04-16 14:00:00 12.5 8 Este 23 Este 0 -- -- 61
2019-04-16 13:00:00 12.2 5 Nordeste 19 Este 0 -- -- 65
2019-04-16 12:00:00 12.3 8 Este 18 Este 0 -- -- 68
2019-04-16 11:00:00 10.1 5 Este 12 Sudeste 0 -- -- 74
2019-04-16 10:00:00 8 3 Noroeste 15 Noroeste 0.2 -- -- 80
2019-04-16 09:00:00 5.8 14 Noroeste 19 Noroeste 0 -- -- 95
2019-04-16 08:00:00 5 14 Noroeste 24 Noroeste 0 -- -- 98
2019-04-16 07:00:00 5.6 17 Noroeste 25 Noroeste 0 -- -- 98
2019-04-16 06:00:00 5.8 14 Noroeste 19 Norte 0 -- -- 98
2019-04-16 05:00:00 5.9 10 Noroeste 15 Noroeste 0 -- -- 97
2019-04-16 04:00:00 6.5 7 Noroeste 15 Noroeste 0 -- -- 94
2019-04-16 03:00:00 7.8 10 Oeste 26 Noroeste 0 -- -- 85
2019-04-16 02:00:00 8.3 17 Noroeste 33 Noroeste 0 -- -- 81
2019-04-16 01:00:00 8.9 20 Noroeste 37 Noroeste 0 -- -- 85
2019-04-16 00:00:00 9.7 17 Noroeste 33 Noroeste 0 -- -- 88
2019-04-15 23:00:00 10.5 16 Noroeste 30 Oeste 0 -- -- 83
2019-04-15 22:00:00 12.2 9 Oeste 19 Oeste 0 -- -- 74
2019-04-15 21:00:00 11.9 8 Sudoeste 18 Sur 0.2 -- -- 80
2019-04-15 20:00:00 13.2 10 Sur 43 Sur 3.4 -- -- 73
2019-04-15 19:00:00 17.8 9 Noroeste 31 Sudoeste 0 -- -- 48
2019-04-15 18:00:00 16.2 11 Sur 37 Sur 0.4 -- -- 65
2019-04-15 17:00:00 18.1 19 Sur 40 Sur 0 -- -- 54
2019-04-15 16:00:00 18.1 19 Sur 38 Sudoeste 0 -- -- 52
2019-04-15 15:00:00 18.7 20 Sur 37 Sudoeste 0 -- -- 54
2019-04-15 14:00:00 18.6 22 Sudoeste 42 Sudoeste 0 -- -- 54
2019-04-15 13:00:00 18.3 22 Sur 45 Sur 0 -- -- 52
2019-04-15 12:00:00 17.7 24 Sur 43 Sudoeste 0 -- -- 55
2019-04-15 11:00:00 16.4 24 Sur 38 Sur 0 -- -- 58
2019-04-15 10:00:00 15.5 19 Sur 32 Sur 0 -- -- 59
2019-04-15 09:00:00 14 21 Sur 29 Sur 0 -- -- 64
2019-04-15 08:00:00 12.1 12 Sur 19 Sudoeste 0 -- -- 68
2019-04-15 07:00:00 9.2 6 Sur 22 Sudoeste 0 -- -- 81
2019-04-15 06:00:00 9.3 20 Sudoeste 24 Sudoeste 0 -- -- 81
2019-04-15 05:00:00 9.7 5 Sur 23 Sudoeste 0 -- -- 79
2019-04-15 04:00:00 9.2 22 Sudoeste 27 Sudoeste 0 -- -- 82
2019-04-15 03:00:00 9.4 21 Sudoeste 27 Sudoeste 0 -- -- 83
2019-04-15 02:00:00 9 23 Sudoeste 26 Sudoeste 0 -- -- 84
2019-04-15 01:00:00 9.6 17 Sudoeste 22 Sudoeste 0 -- -- 81
2019-04-15 00:00:00 10.4 3 Sudoeste 12 Oeste 0 -- -- 77
2019-04-14 23:00:00 10.8 8 Oeste 12 Noroeste 0 -- -- 78
2019-04-14 22:00:00 11.7 5 Oeste 13 Noroeste 0 -- -- 72
2019-04-14 21:00:00 12.9 6 Norte 21 Norte 0 -- -- 64
2019-04-14 20:00:00 14.9 12 Norte 22 Norte 0 -- -- 58
2019-04-14 19:00:00 16.9 16 Norte 31 Noroeste 0 -- -- 56
2019-04-14 18:00:00 18.1 22 Noroeste 39 Noroeste 0 -- -- 52
2019-04-14 17:00:00 17.4 28 Noroeste 42 Noroeste 0 -- -- 56
2019-04-14 16:00:00 18.1 25 Noroeste 41 Noroeste 0 -- -- 56
2019-04-14 15:00:00 17.9 30 Noroeste 41 Noroeste 0 -- -- 54
2019-04-14 14:00:00 15.9 25 Noroeste 41 Noroeste 0 -- -- 58
2019-04-14 13:00:00 15.6 25 Noroeste 40 Noroeste 0 -- -- 57
2019-04-14 12:00:00 15.1 18 Oeste 33 Oeste 0 -- -- 59
2019-04-14 11:00:00 12.9 16 Noroeste 46 Oeste 0 -- -- 68
2019-04-14 10:00:00 11.6 24 Noroeste 43 Oeste 0 -- -- 71
2019-04-14 09:00:00 10.6 28 Noroeste 42 Oeste 0 -- -- 65
2019-04-14 08:00:00 9.2 24 Oeste 45 Noroeste 0 -- -- 59
2019-04-14 07:00:00 8.5 12 Oeste 24 Oeste 0 -- -- 47
2019-04-14 06:00:00 7.7 10 Noroeste 23 Oeste 0 -- -- 51
2019-04-14 05:00:00 6.8 2 Norte 9 Noroeste 0 -- -- 44
2019-04-14 04:00:00 6.7 5 Noroeste 17 Noroeste 0 -- -- 42
2019-04-14 03:00:00 6.8 12 Noroeste 16 Noroeste 0 -- -- 41
2019-04-14 02:00:00 7.6 13 Noroeste 17 Oeste 0 -- -- 41
2019-04-14 01:00:00 7.9 5 Noroeste 10 Noroeste 0 -- -- 32
2019-04-14 00:00:00 8.6 8 Noroeste 12 Noroeste 0 -- -- 29
2019-04-13 23:00:00 8.5 6 Noroeste 17 Oeste 0 -- -- 28
2019-04-13 22:00:00 6.5 11 Oeste 15 Oeste 0 -- -- 37
2019-04-13 21:00:00 8.2 8 Oeste 11 Oeste 0 -- -- 37
2019-04-13 20:00:00 12.6 7 Oeste 17 Noroeste 0 -- -- 25
2019-04-13 19:00:00 14.7 11 Noroeste 21 Noroeste 0 -- -- 23
2019-04-13 18:00:00 15.5 10 Noroeste 21 Noroeste 0 -- -- 22
2019-04-13 17:00:00 15.1 13 Norte 28 Noroeste 0 -- -- 22
2019-04-13 16:00:00 14.7 18 Noroeste 27 Norte 0 -- -- 24
2019-04-13 15:00:00 14.9 14 Noroeste 23 Noroeste 0 -- -- 24
2019-04-13 14:00:00 14.2 8 Noroeste 20 Norte 0 -- -- 25
2019-04-13 13:00:00 12.4 14 Noroeste 19 Noroeste 0 -- -- 32
2019-04-13 12:00:00 10.4 12 Noroeste 18 Noroeste 0 -- -- 37
2019-04-13 11:00:00 8.8 14 Norte 20 Norte 0 -- -- 45
2019-04-13 10:00:00 6.5 9 Norte 12 Noroeste 0 -- -- 51
2019-04-13 09:00:00 4.2 7 Noroeste 12 Noroeste 0 -- -- 61
2019-04-13 08:00:00 1.4 6 Oeste 8 Noroeste 0 -- -- 60
2019-04-13 07:00:00 0 6 Noroeste 10 Oeste 0 -- -- 63
2019-04-13 06:00:00 0.7 3 Noroeste 7 Noroeste 0 -- -- 70
2019-04-13 05:00:00 0.9 6 Oeste 9 Noroeste 0 -- -- 72
2019-04-13 04:00:00 1.5 6 Noroeste 13 Oeste 0 -- -- 78
2019-04-13 03:00:00 1.8 4 Sudoeste 8 Este 0 -- -- 77
2019-04-13 02:00:00 2.3 2 Noroeste 16 Oeste 0 -- -- 75
2019-04-13 01:00:00 2 10 Oeste 13 Oeste 0 -- -- 77
2019-04-13 00:00:00 3.2 6 Oeste 12 Oeste 0 -- -- 73
2019-04-12 23:00:00 4.4 8 Noroeste 17 Oeste 0 -- -- 69
2019-04-12 22:00:00 5.1 10 Noroeste 21 Noroeste 0 -- -- 68
2019-04-12 21:00:00 6.1 9 Noroeste 21 Norte 0 -- -- 63
2019-04-12 20:00:00 8.2 13 Norte 25 Norte 0 -- -- 57
2019-04-12 19:00:00 10 18 Norte 28 Norte 0 -- -- 51
2019-04-12 18:00:00 10.9 15 Noroeste 29 Noroeste 0 -- -- 49
2019-04-12 17:00:00 11.2 20 Noroeste 32 Noroeste 0 -- -- 54
2019-04-12 16:00:00 11.2 16 Noroeste 31 Noroeste 0 -- -- 54
2019-04-12 15:00:00 10.6 14 Noroeste 31 Noroeste 0 -- -- 56
2019-04-12 14:00:00 8.8 13 Noroeste 32 Noroeste 0 -- -- 60
2019-04-12 13:00:00 7.7 24 Noroeste 36 Oeste 0 -- -- 68
2019-04-12 12:00:00 6.7 23 Noroeste 36 Noroeste 0 -- -- 70
2019-04-12 11:00:00 4.9 23 Noroeste 37 Noroeste 0 -- -- 81
2019-04-12 10:00:00 2.7 20 Noroeste 36 Noroeste 0 -- -- 88
2019-04-12 09:00:00 2.2 22 Noroeste 40 Noroeste 0 -- -- 90
2019-04-12 08:00:00 2 21 Noroeste 31 Noroeste 0 -- -- 91
2019-04-12 07:00:00 2.2 19 Noroeste 33 Noroeste 0 -- -- 91
2019-04-12 06:00:00 2.2 21 Noroeste 30 Noroeste 0 -- -- 92
2019-04-12 05:00:00 2 21 Noroeste 31 Noroeste 0 -- -- 92
2019-04-12 04:00:00 1.9 18 Noroeste 31 Noroeste 0 -- -- 91
2019-04-12 03:00:00 2 19 Noroeste 28 Noroeste 0 -- -- 91
2019-04-12 02:00:00 1.8 21 Noroeste 37 Noroeste 0 -- -- 92
2019-04-12 01:00:00 1.6 23 Noroeste 33 Noroeste 0 -- -- 94
2019-04-12 00:00:00 2.2 24 Noroeste 49 Noroeste 0 -- -- 88
2019-04-11 23:00:00 3.2 30 Noroeste 39 Noroeste 0 -- -- 86
2019-04-11 22:00:00 3.4 27 Noroeste 42 Noroeste 0 -- -- 85
2019-04-11 21:00:00 4 28 Noroeste 42 Norte 0 -- -- 81
2019-04-11 20:00:00 4.8 26 Norte 47 Norte 0 -- -- 78
2019-04-11 19:00:00 6.5 28 Noroeste 45 Noroeste 0 -- -- 72
2019-04-11 18:00:00 6.8 30 Noroeste 48 Noroeste 0 -- -- 70
2019-04-11 17:00:00 8.1 30 Norte 45 Noroeste 0 -- -- 67
2019-04-11 16:00:00 7.7 31 Noroeste 46 Norte 0 -- -- 67
2019-04-11 15:00:00 8.4 33 Noroeste 48 Noroeste 0 -- -- 65
2019-04-11 14:00:00 7.9 29 Noroeste 46 Noroeste 0 -- -- 66
2019-04-11 13:00:00 7.6 27 Norte 45 Noroeste 0 -- -- 64
2019-04-11 12:00:00 6.2 27 Noroeste 44 Noroeste 0 -- -- 70
2019-04-11 11:00:00 5 28 Noroeste 40 Noroeste 0 -- -- 73
2019-04-11 10:00:00 4.8 22 Noroeste 45 Noroeste 0 -- -- 81
2019-04-11 09:00:00 2.4 30 Noroeste 44 Noroeste 0 -- -- 88
2019-04-11 08:00:00 2 25 Noroeste 43 Noroeste 0 -- -- 90
2019-04-11 07:00:00 2.1 24 Noroeste 38 Noroeste 0 -- -- 89
2019-04-11 06:00:00 2.1 26 Noroeste 48 Noroeste 0 -- -- 90
2019-04-11 05:00:00 2.2 28 Noroeste 45 Noroeste 0 -- -- 89
2019-04-11 04:00:00 2.4 22 Noroeste 44 Noroeste 0 -- -- 89
2019-04-11 03:00:00 2.5 19 Noroeste 38 Noroeste 0 -- -- 89
2019-04-11 02:00:00 2.6 25 Noroeste 45 Noroeste 0 -- -- 88
2019-04-11 01:00:00 2.6 32 Noroeste 44 Noroeste 0 -- -- 86
2019-04-11 00:00:00 3 24 Noroeste 42 Noroeste 0 -- -- 87
2019-04-10 23:00:00 3.5 27 Noroeste 49 Noroeste 0 -- -- 86
2019-04-10 22:00:00 4.3 29 Noroeste 42 Noroeste 0 -- -- 81
2019-04-10 21:00:00 4.8 26 Noroeste 40 Noroeste 0 -- -- 77
2019-04-10 20:00:00 5.7 24 Noroeste 36 Noroeste 0 -- -- 74
2019-04-10 19:00:00 6.9 17 Noroeste 37 Noroeste 0 -- -- 79
2019-04-10 18:00:00 7.2 26 Noroeste 39 Oeste 0.2 -- -- 80
2019-04-10 17:00:00 7 22 Noroeste 34 Oeste 0 -- -- 80
2019-04-10 16:00:00 7.1 16 Noroeste 28 Noroeste 0 -- -- 79
2019-04-10 15:00:00 4.5 22 Noroeste 33 Noroeste 0.2 -- -- 90
2019-04-10 14:00:00 4.6 19 Norte 34 Noroeste 0.2 -- -- 87
2019-04-10 13:00:00 6.2 25 Noroeste 37 Noroeste 0 -- -- 79
2019-04-10 12:00:00 5.1 23 Noroeste 34 Noroeste 0 -- -- 82
2019-04-10 11:00:00 3.9 24 Noroeste 44 Oeste 0 -- -- 89
2019-04-10 10:00:00 3.6 28 Oeste 45 Oeste 0 -- -- 92
2019-04-10 09:00:00 2.3 24 Oeste 44 Noroeste 0 -- -- 98
2019-04-10 08:00:00 1.9 24 Oeste 43 Oeste 0 -- -- 97
2019-04-10 07:00:00 2.1 27 Oeste 47 Oeste 0 -- -- 96
2019-04-10 06:00:00 2.2 27 Oeste 49 Oeste 0 -- -- 96
2019-04-10 05:00:00 2.2 26 Oeste 46 Oeste 0 -- -- 96
2019-04-10 04:00:00 2.5 26 Oeste 48 Oeste 0 -- -- 94
2019-04-10 03:00:00 2.5 27 Oeste 41 Oeste 0 -- -- 92
2019-04-10 02:00:00 2.5 24 Oeste 47 Oeste 0 -- -- 94
2019-04-10 01:00:00 2.6 21 Oeste 42 Noroeste 0.6 -- -- 94
2019-04-10 00:00:00 3.1 20 Oeste 40 Oeste 0.2 -- -- 92
2019-04-09 23:00:00 2.8 23 Sudoeste 44 Oeste 0 -- -- 92
2019-04-09 22:00:00 2.5 25 Oeste 50 Oeste 1.4 -- -- 94
2019-04-09 21:00:00 1.9 26 Oeste 39 Oeste 1.4 -- -- 96
2019-04-09 20:00:00 1.6 17 Oeste 36 Oeste 1.4 -- -- 96
2019-04-09 19:00:00 1.4 21 Oeste 51 Noroeste 2.8 -- -- 94
2019-04-09 18:00:00 6.7 13 Oeste 32 Sudoeste 0.2 -- -- 80
2019-04-09 17:00:00 5.4 22 Oeste 42 Oeste 0 -- -- 82
2019-04-09 16:00:00 9.6 16 Oeste 35 Oeste 0 -- -- 58
2019-04-09 15:00:00 8 18 Sudoeste 37 Oeste 0 -- -- 65
2019-04-09 14:00:00 9.2 22 Oeste 44 Noroeste 0 -- -- 66
2019-04-09 13:00:00 7.8 22 Oeste 38 Oeste 0 -- -- 68
2019-04-09 12:00:00 7.8 18 Oeste 37 Oeste 0 -- -- 76
2019-04-09 11:00:00 6.2 20 Oeste 45 Oeste 0 -- -- 85
2019-04-09 10:00:00 4.3 25 Oeste 39 Oeste 0 -- -- 89
2019-04-09 09:00:00 2.9 23 Oeste 42 Sudoeste 0.2 -- -- 93
2019-04-09 08:00:00 2 22 Oeste 33 Oeste 0 -- -- 95
2019-04-09 07:00:00 2.2 17 Oeste 39 Oeste 0 -- -- 91
2019-04-09 06:00:00 2.6 29 Oeste 42 Oeste 0 -- -- 90
2019-04-09 05:00:00 2 22 Sudoeste 40 Sudoeste 0 -- -- 95
2019-04-09 04:00:00 2.1 19 Sudoeste 30 Sudoeste 0.4 -- -- 95
2019-04-09 03:00:00 2.2 15 Oeste 33 Sudoeste 1 -- -- 94
2019-04-09 02:00:00 2.5 15 Oeste 30 Oeste 0 -- -- 91
2019-04-09 01:00:00 1.8 2 Nordeste 27 Noroeste 0 -- -- 93
2019-04-09 00:00:00 3.3 18 Oeste 35 Oeste 0 -- -- 89
2019-04-08 23:00:00 4 15 Sudoeste 18 Sudoeste 0 -- -- 90
2019-04-08 22:00:00 3.9 3 Noroeste 13 Oeste 0 -- -- 88
2019-04-08 21:00:00 4.9 9 Oeste 35 Noroeste 0.4 -- -- 89
2019-04-08 20:00:00 6.5 11 Noroeste 25 Noroeste 0 -- -- 89
2019-04-08 19:00:00 8.2 20 Noroeste 35 Noroeste 0 -- -- 82
2019-04-08 18:00:00 9.4 16 Noroeste 34 Oeste 0 -- -- 76
2019-04-08 17:00:00 10.8 10 Oeste 38 Noroeste 0.2 -- -- 77
2019-04-08 16:00:00 9.3 16 Noroeste 38 Oeste 0.4 -- -- 84
2019-04-08 15:00:00 10.6 18 Noroeste 36 Oeste 0 -- -- 80
2019-04-08 14:00:00 10.6 18 Oeste 35 Oeste 0 -- -- 82
2019-04-08 13:00:00 7.4 14 Oeste 30 Oeste 0.8 -- -- 91
2019-04-08 12:00:00 7.7 22 Oeste 41 Oeste 0.6 -- -- 90
2019-04-08 11:00:00 6.4 18 Oeste 36 Oeste 0.4 -- -- 93
2019-04-08 10:00:00 5.8 17 Oeste 35 Oeste 0 -- -- 93
2019-04-08 09:00:00 4.9 17 Sudoeste 31 Sudoeste 0 -- -- 94
2019-04-08 08:00:00 4.4 17 Sudoeste 29 Sudoeste 0 -- -- 95
2019-04-08 07:00:00 4.3 13 Sudoeste 34 Sudoeste 0 -- -- 93
2019-04-08 06:00:00 3.9 18 Sudoeste 28 Sudoeste 0.2 -- -- 93
2019-04-08 05:00:00 3.4 17 Sudoeste 30 Sudoeste 0.2 -- -- 94
2019-04-08 04:00:00 3 23 Sudoeste 34 Sudoeste 0.2 -- -- 94
2019-04-08 03:00:00 2.9 25 Sudoeste 34 Sudoeste 0.4 -- -- 95
2019-04-08 02:00:00 2.9 22 Sudoeste 32 Sudoeste 0.4 -- -- 94
2019-04-08 01:00:00 3.4 15 Sudoeste 30 Sudoeste 0.2 -- -- 90
2019-04-08 00:00:00 4.2 14 Sudoeste 37 Sudoeste 0 -- -- 83
2019-04-07 23:00:00 4.7 10 Oeste 21 Oeste 0 -- -- 70
2019-04-07 22:00:00 4.9 9 Oeste 31 Oeste 0 -- -- 67
2019-04-07 21:00:00 4.8 15 Oeste 27 Oeste 0 -- -- 67
2019-04-07 20:00:00 5.3 10 Oeste 26 Noroeste 0 -- -- 68
2019-04-07 19:00:00 7 19 Noroeste 34 Oeste 0 -- -- 57
2019-04-07 18:00:00 7 24 Oeste 39 Oeste 0 -- -- 55
2019-04-07 17:00:00 7.9 19 Oeste 40 Noroeste 0 -- -- 58
2019-04-07 16:00:00 6.7 25 Oeste 40 Oeste 0 -- -- 60
2019-04-07 15:00:00 6.4 20 Oeste 36 Noroeste 0 -- -- 71
2019-04-07 14:00:00 5.6 25 Oeste 43 Oeste 0 -- -- 68
2019-04-07 13:00:00 5.1 28 Noroeste 49 Oeste 0 -- -- 73
2019-04-07 12:00:00 3.9 28 Oeste 48 Oeste 0 -- -- 83
2019-04-07 11:00:00 2.2 35 Noroeste 51 Noroeste 0 -- -- 87
2019-04-07 10:00:00 0.9 33 Noroeste 53 Noroeste 0 -- -- 90
2019-04-07 09:00:00 0.8 30 Oeste 47 Oeste 0.2 -- -- 91
2019-04-07 08:00:00 0.6 20 Noroeste 39 Oeste 0 -- -- 94
2019-04-07 07:00:00 0.4 24 Oeste 43 Oeste 0 -- -- 91
2019-04-07 06:00:00 0.5 20 Oeste 41 Oeste 0 -- -- 93
2019-04-07 05:00:00 0.5 23 Oeste 39 Oeste 0 -- -- 94
2019-04-07 04:00:00 0.8 22 Oeste 39 Oeste 0 -- -- 94
2019-04-07 03:00:00 0.7 21 Oeste 37 Oeste 0 -- -- 95
2019-04-07 02:00:00 0.6 16 Oeste 31 Oeste 0.6 -- -- 97
2019-04-07 01:00:00 0.6 14 Oeste 28 Sudoeste 0 -- -- 96
2019-04-07 00:00:00 0.3 14 Sudoeste 24 Sudoeste 1 -- -- 97
2019-04-06 23:00:00 0.3 12 Sudoeste 26 Oeste 0.8 -- -- 97
2019-04-06 22:00:00 0.3 12 Oeste 25 Sudoeste 0.8 -- -- 96
2019-04-06 21:00:00 0.4 13 Sudoeste 22 Sudoeste 0.6 -- -- 97
2019-04-06 20:00:00 0.4 18 Sudoeste 34 Sudoeste 0.6 -- -- 95
2019-04-06 19:00:00 0.8 24 Sudoeste 37 Noroeste 0.4 -- -- 93
2019-04-06 18:00:00 4.7 18 Oeste 45 Sudoeste 0 -- -- 71
2019-04-06 17:00:00 6.5 20 Sudoeste 46 Sudoeste 0 -- -- 69
2019-04-06 16:00:00 5.6 14 Oeste 35 Sudoeste 0.2 -- -- 72
2019-04-06 15:00:00 5.8 18 Oeste 39 Oeste 0 -- -- 67
2019-04-06 14:00:00 4.7 21 Oeste 44 Oeste 0 -- -- 73
2019-04-06 13:00:00 4 21 Oeste 48 Oeste 0 -- -- 75
2019-04-06 12:00:00 3.9 17 Oeste 46 Oeste 0 -- -- 76
2019-04-06 11:00:00 2.9 19 Oeste 44 Oeste 0 -- -- 81
2019-04-06 10:00:00 1.5 23 Oeste 43 Oeste 0 -- -- 87
2019-04-06 09:00:00 1 26 Oeste 46 Oeste 0.4 -- -- 90
2019-04-06 08:00:00 -0.1 23 Oeste 42 Sudoeste 0.2 -- -- 94
2019-04-06 07:00:00 -0.1 22 Oeste 39 Oeste 0 -- -- 94
2019-04-06 06:00:00 0 22 Oeste 45 Oeste 0 -- -- 94
2019-04-06 05:00:00 -0.1 17 Oeste 33 Oeste 0 -- -- 95
2019-04-06 04:00:00 -0.2 21 Oeste 42 Oeste 0 -- -- 93
2019-04-06 03:00:00 0.2 21 Oeste 41 Oeste 0 -- -- 94
2019-04-06 02:00:00 0.1 22 Oeste 41 Oeste 0 -- -- 94
2019-04-06 01:00:00 0.2 24 Oeste 43 Oeste 0.4 -- -- 95
2019-04-06 00:00:00 0.2 22 Oeste 37 Oeste 0.4 -- -- 96
2019-04-05 23:00:00 0.2 14 Oeste 31 Oeste 1.4 -- -- 96
2019-04-05 22:00:00 0.5 12 Oeste 36 Sudoeste 4 -- -- 94
2019-04-05 21:00:00 3.1 13 Sudoeste 27 Sudoeste 0 -- -- 91
2019-04-05 20:00:00 3.3 22 Sudoeste 31 Sur 0 -- -- 90
2019-04-05 19:00:00 4.1 11 Sudoeste 37 Sudoeste 0.2 -- -- 89
2019-04-05 18:00:00 4.8 18 Sur 39 Sur 0.2 -- -- 83
2019-04-05 17:00:00 4.6 14 Sur 39 Sur 0.2 -- -- 86
2019-04-05 16:00:00 4.7 24 Sur 39 Sur 0.4 -- -- 85
2019-04-05 15:00:00 7.1 12 Sudoeste 28 Sudoeste 0 -- -- 66
2019-04-05 14:00:00 7.4 16 Sudoeste 29 Sur 0 -- -- 65
2019-04-05 13:00:00 8.8 21 Sudoeste 38 Sudoeste 0 -- -- 61
2019-04-05 12:00:00 9.5 23 Sudoeste 40 Sudoeste 0 -- -- 58
2019-04-05 11:00:00 7.4 19 Sudoeste 36 Sudoeste 0 -- -- 63
2019-04-05 10:00:00 4.2 19 Sudoeste 33 Sur 0 -- -- 72
2019-04-05 09:00:00 3.4 13 Sur 21 Sudoeste 0 -- -- 81
2019-04-05 08:00:00 2.8 11 Sudoeste 26 Sudoeste 0 -- -- 81
2019-04-05 07:00:00 3.4 13 Sudoeste 27 Sudoeste 0 -- -- 85
2019-04-05 06:00:00 3.2 10 Sur 28 Sur 0 -- -- 88
2019-04-05 05:00:00 3.4 16 Sur 33 Sudeste 0 -- -- 87
2019-04-05 04:00:00 3.2 6 Sur 30 Sudoeste 0 -- -- 86
2019-04-05 03:00:00 2.3 5 Sur 22 Sudeste 0 -- -- 77
2019-04-05 02:00:00 1.5 15 Sur 23 Sur 0 -- -- 74
2019-04-05 01:00:00 1.1 12 Sur 16 Sur 0 -- -- 67
2019-04-05 00:00:00 0.7 8 Sudoeste 13 Sudoeste 0 -- -- 69
2019-04-04 23:00:00 2.2 8 Oeste 11 Oeste 0 -- -- 61
2019-04-04 22:00:00 3.3 5 Sur 12 Sudoeste 0 -- -- 67
2019-04-04 21:00:00 4.4 10 Sudoeste 12 Sudoeste 0 -- -- 64
2019-04-04 20:00:00 6.8 7 Oeste 12 Sudoeste 0 -- -- 53
2019-04-04 19:00:00 8.7 8 Sudoeste 19 Sudoeste 0 -- -- 42
2019-04-04 18:00:00 8.8 12 Sur 25 Sur 0 -- -- 42
2019-04-04 17:00:00 8.9 11 Oeste 33 Oeste 0 -- -- 42
2019-04-04 16:00:00 8.2 13 Sudoeste 31 Oeste 0 -- -- 48
2019-04-04 15:00:00 7.6 11 Oeste 29 Oeste 0 -- -- 51
2019-04-04 14:00:00 6 18 Noroeste 33 Noroeste 0 -- -- 51
2019-04-04 13:00:00 3.8 18 Noroeste 29 Noroeste 0 -- -- 62
2019-04-04 12:00:00 3.3 18 Noroeste 31 Oeste 0 -- -- 64
2019-04-04 11:00:00 2 18 Oeste 33 Oeste 0 -- -- 70
2019-04-04 10:00:00 -0.4 23 Noroeste 35 Noroeste 0 -- -- 80
2019-04-04 09:00:00 -1.6 21 Noroeste 30 Noroeste 0 -- -- 85
2019-04-04 08:00:00 -3.1 19 Noroeste 31 Oeste 0 -- -- 89
2019-04-04 07:00:00 -2.8 19 Noroeste 33 Oeste 0 -- -- 89
2019-04-04 06:00:00 -1.8 21 Oeste 34 Oeste 0 -- -- 86
2019-04-04 05:00:00 -2.4 11 Norte 22 Norte 0 -- -- 88
2019-04-04 04:00:00 -2.3 15 Norte 22 Norte 0 -- -- 95
2019-04-04 03:00:00 -2.5 8 Norte 19 Norte 0 -- -- 95
2019-04-04 02:00:00 -1.6 13 Norte 28 Norte 0 -- -- 95
2019-04-04 01:00:00 -1.1 12 Norte 22 Norte 0 -- -- 94
2019-04-04 00:00:00 -0.8 10 Norte 16 Norte 0 -- -- 95
2019-04-03 23:00:00 -1.2 6 Norte 31 Norte 0 -- -- 95
2019-04-03 22:00:00 -0.9 22 Norte 29 Norte 0 -- -- 97
2019-04-03 21:00:00 -0.7 12 Norte 40 Norte 0 -- -- 98
2019-04-03 20:00:00 1.1 18 Norte 28 Norte 0 -- -- 97
2019-04-03 19:00:00 2.3 12 Nordeste 19 Nordeste 0 -- -- 94
2019-04-03 18:00:00 3.5 6 Noroeste 11 Norte 0 -- -- 93
2019-04-03 17:00:00 2.7 6 Noroeste 11 Noroeste 0.4 -- -- 96
2019-04-03 16:00:00 2.1 8 Noroeste 20 Norte 1 -- -- 96
2019-04-03 15:00:00 2.9 14 Norte 26 Norte 0 -- -- 96
2019-04-03 14:00:00 6 18 Noroeste 26 Noroeste 0 -- -- 80
2019-04-03 13:00:00 6 19 Noroeste 25 Noroeste 0 -- -- 81
2019-04-03 12:00:00 6.7 18 Noroeste 27 Oeste 0 -- -- 84
2019-04-03 11:00:00 7.3 13 Oeste 23 Oeste 0 -- -- 81
2019-04-03 10:00:00 6.2 13 Oeste 22 Sudoeste 0 -- -- 85
2019-04-03 09:00:00 5.2 14 Sudoeste 24 Sudoeste 0 -- -- 91
2019-04-03 08:00:00 4.8 18 Sudoeste 26 Sudoeste 0 -- -- 93
2019-04-03 07:00:00 4.3 17 Sudoeste 26 Sudoeste 0 -- -- 94
2019-04-03 06:00:00 4.5 16 Sudoeste 24 Sudoeste 0 -- -- 92
2019-04-03 05:00:00 4.4 13 Sudoeste 21 Sudoeste 0 -- -- 93
2019-04-03 04:00:00 3.9 19 Sudoeste 22 Sudoeste 0 -- -- 92
2019-04-03 03:00:00 4.6 17 Sudoeste 23 Sudoeste 0 -- -- 90
2019-04-03 02:00:00 5.8 18 Sudoeste 23 Sudoeste 0 -- -- 88
2019-04-03 01:00:00 5.8 17 Sudoeste 28 Sudoeste 0 -- -- 88
2019-04-03 00:00:00 5.6 22 Sudoeste 28 Sudoeste 0 -- -- 89
2019-04-02 23:00:00 5.6 17 Sudoeste 23 Sudoeste 0 -- -- 91
2019-04-02 22:00:00 5.3 17 Sudoeste 24 Sudoeste 0 -- -- 89
2019-04-02 21:00:00 5.5 19 Sudoeste 24 Sudoeste 0 -- -- 89
2019-04-02 20:00:00 6.9 18 Sudoeste 23 Sudoeste 0 -- -- 89
2019-04-02 19:00:00 6.7 9 Oeste 29 Oeste 1 -- -- 88
2019-04-02 18:00:00 7 22 Noroeste 34 Noroeste 0.2 -- -- 85
2019-04-02 17:00:00 11.8 12 Noroeste 26 Noroeste 0 -- -- 52
2019-04-02 16:00:00 12.7 9 Noroeste 22 Noroeste 0 -- -- 60
2019-04-02 15:00:00 10.8 13 Noroeste 24 Noroeste 0 -- -- 65
2019-04-02 14:00:00 11.5 18 Noroeste 26 Noroeste 0 -- -- 69
2019-04-02 13:00:00 10.8 14 Noroeste 23 Noroeste 0 -- -- 74
2019-04-02 12:00:00 10.3 17 Noroeste 25 Oeste 0 -- -- 76
2019-04-02 11:00:00 10.5 13 Oeste 21 Oeste 0 -- -- 75
2019-04-02 10:00:00 7.1 13 Sudoeste 21 Sudoeste 0 -- -- 85
2019-04-02 09:00:00 6.1 13 Sudoeste 21 Sudoeste 0 -- -- 92
2019-04-02 08:00:00 5.4 13 Sudoeste 28 Sudoeste 0 -- -- 93
2019-04-02 07:00:00 5.6 17 Sudoeste 27 Sudoeste 0 -- -- 93
2019-04-02 06:00:00 5.4 20 Sudoeste 33 Oeste 0 -- -- 95
2019-04-02 05:00:00 6.2 16 Sudoeste 25 Sudoeste 0 -- -- 95
2019-04-02 04:00:00 6.4 6 Oeste 22 Sudoeste 0 -- -- 95
2019-04-02 03:00:00 6.6 17 Sudoeste 25 Sudoeste 0 -- -- 95
2019-04-02 02:00:00 6.4 20 Sudoeste 25 Sudoeste 0 -- -- 95
2019-04-02 01:00:00 6.4 14 Sudoeste 20 Sudoeste 0 -- -- 93
2019-04-02 00:00:00 6.4 14 Sudoeste 18 Sudoeste 0 -- -- 94
2019-04-01 23:00:00 6.1 9 Sudoeste 15 Sur 0 -- -- 95
2019-04-01 22:00:00 5.8 11 Sur 17 Sudoeste 0 -- -- 95
2019-04-01 21:00:00 5.9 5 Oeste 26 Sudoeste 3.6 -- -- 95
2019-04-01 20:00:00 7 9 Sur 19 Sudoeste 2.6 -- -- 93
2019-04-01 19:00:00 7.9 9 Este 14 Este 0 -- -- 91
2019-04-01 18:00:00 8.5 4 Nordeste 13 Sur 0.4 -- -- 89
2019-04-01 17:00:00 7.7 10 Sudeste 17 Sudeste 1.4 -- -- 95
2019-04-01 16:00:00 9.7 8 Este 15 Este 0 -- -- 84
2019-04-01 15:00:00 9 8 Nordeste 16 Nordeste 0 -- -- 88
2019-04-01 14:00:00 10 6 Sur 18 Sur 0 -- -- 81
2019-04-01 13:00:00 9.4 10 Sur 16 Sur 0 -- -- 84
2019-04-01 12:00:00 8.3 8 Este 14 Nordeste 0 -- -- 95
2019-04-01 11:00:00 6.2 9 Este 13 Este 0.2 -- -- 100
2019-04-01 10:00:00 4.7 5 Este 9 Este 0 -- -- 100
2019-04-01 09:00:00 4.2 6 Este 10 Este 0.2 -- -- 100
2019-04-01 08:00:00 3.9 6 Este 13 Sudeste 0.2 -- -- 99
2019-04-01 07:00:00 3.9 7 Este 12 Sudeste 0.4 -- -- 99
2019-04-01 06:00:00 4 7 Este 11 Este 0.6 -- -- 99
2019-04-01 05:00:00 4.1 5 Sudeste 10 Sudeste 0.6 -- -- 99
2019-04-01 04:00:00 4.1 5 Sudeste 11 Sudeste 0.4 -- -- 99
2019-04-01 03:00:00 4.1 7 Este 13 Este 1 -- -- 99
2019-04-01 02:00:00 4.2 9 Este 15 Este 0.8 -- -- 99
2019-04-01 01:00:00 4.2 12 Este 17 Sudeste 1 -- -- 99
2019-04-01 00:00:00 4.1 12 Este 17 Este 1.6 -- -- 99
2019-03-31 23:00:00 3.8 8 Este 15 Este 0.8 -- -- 98
2019-03-31 22:00:00 3.8 8 Este 23 Este 0.4 -- -- 98
2019-03-31 21:00:00 4 11 Este 19 Este 1.2 -- -- 98
2019-03-31 20:00:00 4.1 10 Este 19 Este 1.2 -- -- 97
2019-03-31 19:00:00 4.3 9 Este 14 Este 1.6 -- -- 96
2019-03-31 18:00:00 4.3 10 Nordeste 13 Nordeste 2 -- -- 96
2019-03-31 17:00:00 4.8 6 Este 17 Este 2 -- -- 95
2019-03-31 16:00:00 5.4 10 Este 17 Este 1.2 -- -- 92
2019-03-31 15:00:00 5.7 7 Este 17 Este 0.2 -- -- 85
2019-03-31 14:00:00 5.9 9 Este 15 Sudeste 0.2 -- -- 80
2019-03-31 13:00:00 7 9 Este 15 Este 0 -- -- 74
2019-03-31 12:00:00 7.2 9 Este 12 Este 0 -- -- 68
2019-03-31 11:00:00 6.8 5 Este 16 Sudeste 0 -- -- 65
2019-03-31 10:00:00 5.4 5 Este 15 Sudeste 0 -- -- 65
2019-03-31 09:00:00 4.3 5 Sudeste 10 Sudeste 0 -- -- 66
2019-03-31 08:00:00 3.5 5 Sudeste 12 Sudeste 0 -- -- 62
2019-03-31 07:00:00 3.4 6 Sudeste 12 Sudeste 0 -- -- 65
2019-03-31 06:00:00 3.6 7 Sudeste 12 Sudeste 0 -- -- 72
2019-03-31 05:00:00 3.8 6 Sudeste 11 Sudeste 0 -- -- 73
2019-03-31 03:00:00 4.1 5 Sur 8 Sur 0 -- -- 81
2019-03-31 01:00:00 4.6 3 Sudeste 8 Sur 0 -- -- 79
2019-03-31 00:00:00 4.4 6 Sur 17 Sur 0 -- -- 80
2019-03-30 23:00:00 4.3 5 Sur 9 Sudeste 0 -- -- 79
2019-03-30 22:00:00 5.1 5 Sudeste 13 Sudeste 0 -- -- 75
2019-03-30 21:00:00 5.2 9 Sudeste 12 Sudeste 0 -- -- 66
2019-03-30 20:00:00 6.6 5 Este 22 Este 0 -- -- 54
2019-03-30 19:00:00 9 15 Este 27 Este 0 -- -- 47
2019-03-30 18:00:00 10.8 17 Nordeste 37 Nordeste 0 -- -- 44
2019-03-30 17:00:00 12.2 15 Este 28 Este 0 -- -- 38
2019-03-30 16:00:00 12.6 13 Nordeste 29 Este 0 -- -- 36
2019-03-30 15:00:00 12.7 14 Nordeste 28 Este 0 -- -- 36
2019-03-30 14:00:00 12.6 11 Este 27 Nordeste 0 -- -- 35
2019-03-30 13:00:00 12.3 10 Este 24 Este 0 -- -- 35
2019-03-30 12:00:00 11.7 9 Este 20 Este 0 -- -- 37
2019-03-30 11:00:00 10.9 9 Nordeste 17 Este 0 -- -- 37
2019-03-30 10:00:00 10.3 5 Este 15 Sudoeste 0 -- -- 36
2019-03-30 09:00:00 8.5 11 Sur 23 Sur 0 -- -- 43
2019-03-30 08:00:00 5.4 12 Sur 25 Sur 0 -- -- 54
2019-03-30 07:00:00 0.7 23 Sudoeste 30 Sudoeste 0 -- -- 67
2019-03-30 06:00:00 0.9 25 Sudoeste 31 Sudoeste 0 -- -- 68
2019-03-30 05:00:00 1.3 26 Sudoeste 30 Sudoeste 0 -- -- 68
2019-03-30 04:00:00 1.7 23 Sudoeste 33 Sudoeste 0 -- -- 71
2019-03-30 03:00:00 2.1 28 Sur 35 Sur 0 -- -- 73
2019-03-30 02:00:00 2.3 29 Sur 38 Sur 0 -- -- 78
2019-03-30 01:00:00 2.7 32 Sudoeste 38 Sudoeste 0 -- -- 83
2019-03-30 00:00:00 3 28 Sur 35 Sur 0 -- -- 77
2019-03-29 23:00:00 4.1 20 Sur 29 Sur 0 -- -- 69
2019-03-29 22:00:00 5.4 21 Sur 30 Sur 0 -- -- 64
2019-03-29 21:00:00 5.5 21 Sur 25 Sudoeste 0 -- -- 63
2019-03-29 20:00:00 6 11 Sur 22 Este 0 -- -- 61
2019-03-29 19:00:00 8.9 18 Este 29 Este 0 -- -- 53
2019-03-29 18:00:00 10.6 18 Este 31 Este 0 -- -- 48
2019-03-29 17:00:00 11.8 17 Este 36 Este 0 -- -- 44
2019-03-29 16:00:00 12.3 18 Nordeste 33 Este 0 -- -- 40
2019-03-29 15:00:00 11.7 21 Este 34 Este 0 -- -- 40
2019-03-29 14:00:00 13.3 12 Este 29 Sur 0 -- -- 36
2019-03-29 13:00:00 13.5 14 Sudeste 34 Sudeste 0 -- -- 33
2019-03-29 12:00:00 12.3 14 Sur 32 Sur 0 -- -- 38
2019-03-29 11:00:00 11.2 18 Sur 35 Sur 0 -- -- 40
2019-03-29 10:00:00 9 25 Sur 37 Sur 0 -- -- 44
2019-03-29 09:00:00 7.7 21 Sur 30 Sudoeste 0 -- -- 43
2019-03-29 08:00:00 4.7 24 Sudoeste 29 Sudoeste 0 -- -- 42
2019-03-29 07:00:00 1.1 24 Sudoeste 31 Sudoeste 0 -- -- 52
2019-03-29 06:00:00 1.4 27 Sudoeste 31 Sudoeste 0 -- -- 52
2019-03-29 05:00:00 1.7 24 Sudoeste 27 Sudoeste 0 -- -- 65
2019-03-29 04:00:00 3.9 18 Sur 23 Sudoeste 0 -- -- 65
2019-03-29 03:00:00 3.4 8 Sudeste 19 Sudoeste 0 -- -- 69
2019-03-29 02:00:00 3.5 3 Sudeste 20 Sudoeste 0 -- -- 68
2019-03-29 01:00:00 3.3 10 Sudoeste 27 Sudoeste 0 -- -- 70
2019-03-29 00:00:00 3.7 24 Sudoeste 29 Sudoeste 0 -- -- 69
2019-03-28 23:00:00 4.6 4 Este 14 Sur 0 -- -- 63
2019-03-28 22:00:00 4.6 6 Sur 10 Sur 0 -- -- 63
2019-03-28 21:00:00 6.4 3 Sur 6 Sudeste 0 -- -- 53
2019-03-28 20:00:00 7.3 3 Sudeste 13 Este 0 -- -- 50
2019-03-28 19:00:00 9.8 9 Nordeste 18 Norte 0 -- -- 44
2019-03-28 18:00:00 11.4 13 Nordeste 22 Nordeste 0 -- -- 42
2019-03-28 17:00:00 12.4 11 Nordeste 21 Nordeste 0 -- -- 41
2019-03-28 16:00:00 12.5 12 Nordeste 24 Nordeste 0 -- -- 41
2019-03-28 15:00:00 12.8 14 Nordeste 29 Nordeste 0 -- -- 42
2019-03-28 14:00:00 13.3 8 Noroeste 17 Norte 0 -- -- 37
2019-03-28 13:00:00 12.4 11 Noroeste 21 Noroeste 0 -- -- 35
2019-03-28 12:00:00 11.6 10 Noroeste 21 Noroeste 0 -- -- 34
2019-03-28 11:00:00 10.5 10 Noroeste 15 Noroeste 0 -- -- 33
2019-03-28 10:00:00 9.6 5 Norte 9 Norte 0 -- -- 38
2019-03-28 09:00:00 7.7 3 Este 6 Sudoeste 0 -- -- 43
2019-03-28 08:00:00 3.6 3 Sur 5 Sudeste 0 -- -- 52
2019-03-28 07:00:00 0.5 4 Sudoeste 10 Sudoeste 0 -- -- 57
2019-03-28 06:00:00 0.5 2 Oeste 8 Sudoeste 0 -- -- 61
2019-03-28 05:00:00 1 4 Oeste 8 Sudoeste 0 -- -- 59
2019-03-28 04:00:00 1.8 4 Oeste 9 Sudoeste 0 -- -- 56
2019-03-28 03:00:00 2.1 4 Oeste 7 Noroeste 0 -- -- 51
2019-03-28 02:00:00 2.1 3 Oeste 8 Oeste 0 -- -- 49
2019-03-28 01:00:00 2.1 4 Oeste 13 Noroeste 0 -- -- 50
2019-03-28 00:00:00 2.8 6 Noroeste 13 Noroeste 0 -- -- 48
2019-03-27 23:00:00 4.3 12 Noroeste 25 Noroeste 0 -- -- 46
2019-03-27 22:00:00 4.8 10 Noroeste 18 Noroeste 0 -- -- 44
2019-03-27 21:00:00 6.1 10 Noroeste 15 Noroeste 0 -- -- 38
2019-03-27 20:00:00 7 6 Noroeste 13 Norte 0 -- -- 34
2019-03-27 19:00:00 9.3 7 Norte 17 Norte 0 -- -- 30
2019-03-27 18:00:00 11.1 8 Nordeste 22 Nordeste 0 -- -- 25
2019-03-27 17:00:00 11.8 14 Nordeste 21 Nordeste 0 -- -- 26
2019-03-27 16:00:00 12.1 10 Norte 24 Nordeste 0 -- -- 24
2019-03-27 15:00:00 12 12 Nordeste 22 Nordeste 0 -- -- 27
2019-03-27 14:00:00 12.4 12 Nordeste 20 Nordeste 0 -- -- 28
2019-03-27 13:00:00 11.7 10 Nordeste 20 Nordeste 0 -- -- 30
2019-03-27 12:00:00 10.2 5 Nordeste 14 Norte 0 -- -- 40
2019-03-27 11:00:00 8.8 6 Norte 15 Norte 0 -- -- 42
2019-03-27 10:00:00 6.9 6 Noroeste 18 Noroeste 0 -- -- 47
2019-03-27 09:00:00 5 10 Noroeste 19 Noroeste 0 -- -- 53
2019-03-27 08:00:00 2.8 9 Noroeste 15 Oeste 0 -- -- 58
2019-03-27 07:00:00 -0.9 9 Oeste 13 Noroeste 0 -- -- 66
2019-03-27 06:00:00 -0.5 5 Noroeste 12 Oeste 0 -- -- 64
2019-03-27 05:00:00 0.1 7 Noroeste 15 Noroeste 0 -- -- 61
2019-03-27 04:00:00 0.3 4 Noroeste 12 Noroeste 0 -- -- 59
2019-03-27 03:00:00 1.1 6 Noroeste 18 Noroeste 0 -- -- 54
2019-03-27 02:00:00 1.9 9 Oeste 16 Noroeste 0 -- -- 49
2019-03-27 01:00:00 2.4 10 Oeste 16 Noroeste 0 -- -- 48
2019-03-27 00:00:00 2.6 9 Noroeste 17 Oeste 0 -- -- 47
2019-03-26 23:00:00 3.7 7 Noroeste 19 Noroeste 0 -- -- 43
2019-03-26 22:00:00 4.4 14 Noroeste 24 Noroeste 0 -- -- 43
2019-03-26 21:00:00 5 14 Norte 24 Norte 0 -- -- 41
2019-03-26 20:00:00 6.5 13 Norte 19 Norte 0 -- -- 32
2019-03-26 19:00:00 9 10 Norte 22 Norte 0 -- -- 27
2019-03-26 18:00:00 10.9 13 Norte 23 Nordeste 0 -- -- 26
2019-03-26 17:00:00 11.9 12 Nordeste 24 Nordeste 0 -- -- 27
2019-03-26 16:00:00 12 14 Nordeste 25 Nordeste 0 -- -- 25
2019-03-26 15:00:00 11.8 12 Nordeste 28 Este 0 -- -- 29
2019-03-26 14:00:00 11.8 12 Nordeste 21 Norte 0 -- -- 35
2019-03-26 13:00:00 11.5 11 Este 19 Este 0 -- -- 35
2019-03-26 12:00:00 10.7 6 Este 18 Nordeste 0 -- -- 43
2019-03-26 11:00:00 8.4 4 Noroeste 18 Noroeste 0 -- -- 52
2019-03-26 10:00:00 5.9 7 Norte 15 Noroeste 0 -- -- 62
2019-03-26 09:00:00 3.5 12 Noroeste 24 Norte 0 -- -- 73
2019-03-26 08:00:00 1.9 15 Noroeste 22 Noroeste 0 -- -- 78
2019-03-26 07:00:00 -0.1 13 Noroeste 22 Noroeste 0 -- -- 87
2019-03-26 06:00:00 -0.2 13 Noroeste 21 Noroeste 0 -- -- 88
2019-03-26 05:00:00 0.4 14 Noroeste 25 Noroeste 0 -- -- 86
2019-03-26 04:00:00 0 13 Noroeste 19 Noroeste 0 -- -- 89
2019-03-26 03:00:00 0.1 14 Noroeste 30 Noroeste 0 -- -- 88
2019-03-26 02:00:00 0.4 17 Noroeste 26 Noroeste 0 -- -- 87
2019-03-26 01:00:00 0.6 16 Noroeste 31 Noroeste 0 -- -- 86
2019-03-26 00:00:00 1.1 17 Noroeste 27 Noroeste 0 -- -- 84
2019-03-25 23:00:00 1.5 16 Noroeste 25 Noroeste 0 -- -- 79
2019-03-25 22:00:00 2.4 12 Noroeste 27 Noroeste 0 -- -- 73
2019-03-25 21:00:00 3.3 18 Noroeste 29 Norte 0 -- -- 68
2019-03-25 20:00:00 4.4 13 Noroeste 27 Noroeste 0 -- -- 64
2019-03-25 19:00:00 6.5 17 Noroeste 36 Norte 0 -- -- 55
2019-03-25 18:00:00 8.9 23 Norte 33 Norte 0 -- -- 47
2019-03-25 17:00:00 10.8 19 Norte 28 Norte 0 -- -- 44
2019-03-25 16:00:00 11.3 18 Norte 31 Norte 0 -- -- 44
2019-03-25 15:00:00 11.8 18 Norte 28 Noroeste 0 -- -- 47
2019-03-25 14:00:00 11.5 15 Norte 28 Norte 0 -- -- 51
2019-03-25 13:00:00 10.9 18 Norte 33 Norte 0 -- -- 52
2019-03-25 12:00:00 9.5 19 Noroeste 35 Noroeste 0 -- -- 57
2019-03-25 11:00:00 8.6 24 Noroeste 33 Norte 0 -- -- 62
2019-03-25 10:00:00 7.6 22 Noroeste 30 Noroeste 0 -- -- 65
2019-03-25 09:00:00 7.7 19 Noroeste 30 Noroeste 0 -- -- 58
2019-03-25 08:00:00 6.5 18 Noroeste 33 Noroeste 0 -- -- 60
2019-03-25 07:00:00 4 16 Noroeste 24 Noroeste 0 -- -- 68
2019-03-25 06:00:00 3.3 5 Noroeste 8 Noroeste 0 -- -- 68
2019-03-25 05:00:00 3.7 3 Sudeste 5 Noroeste 0 -- -- 68
2019-03-25 04:00:00 4.7 4 Oeste 9 Noroeste 0 -- -- 64
2019-03-25 03:00:00 4.9 7 Noroeste 10 Noroeste 0 -- -- 66
2019-03-25 02:00:00 5.2 2 Noroeste 15 Noroeste 0 -- -- 60
2019-03-25 01:00:00 6.6 10 Oeste 19 Noroeste 0 -- -- 55
2019-03-25 00:00:00 7.5 11 Oeste 22 Oeste 0 -- -- 57